Time;durP1;ratioP1;P1;durP2;ratioP2;P2;SDS_P1;SDS_P2;PMS_P1;PMS_P2;Temp;Humidity;BMP_temperature;BMP_pressure;BME280_temperature;BME280_humidity;BME280_pressure;Samples;Min_cycle;Max_cycle;Signal;HPM_P1;HPM_P2
2022/11/19 00:01:27;;;;;;;0.10;0.10;;;7.90;99.90;;;7.96;100.00;99214.25;4994433;28;20290;-74
2022/11/19 00:03:54;;;;;;;0.10;0.10;;;8.00;99.90;;;7.96;100.00;99222.13;4999923;28;20605;-74
2022/11/19 00:06:26;;;;;;;0.10;0.10;;;8.00;99.90;;;7.92;100.00;99220.38;4995646;28;20232;-75
2022/11/19 00:08:54;;;;;;;0.10;0.10;;;7.90;99.90;;;7.81;100.00;99220.38;4990925;28;20296;-75
2022/11/19 00:14:26;;;;;;;0.10;0.10;;;7.80;99.90;;;7.76;100.00;99232.63;4952592;28;20270;-74
2022/11/19 00:16:53;;;;;;;0.00;0.00;;;7.80;99.90;;;7.76;100.00;99231.75;5016125;28;20230;-75
2022/11/19 00:19:20;;;;;;;0.10;0.10;;;7.80;99.90;;;7.68;100.00;99235.25;4990736;28;20707;-74
2022/11/19 00:21:48;;;;;;;0.25;0.25;;;7.70;99.90;;;7.70;100.00;99236.13;4999422;28;20379;-75
2022/11/19 00:24:16;;;;;;;0.10;0.10;;;7.70;99.90;;;7.71;100.00;99237.88;4998410;28;20751;-75
2022/11/19 00:26:43;;;;;;;0.00;0.00;;;7.70;99.90;;;7.80;100.00;99237.06;4991373;28;20264;-74
2022/11/19 00:29:12;;;;;;;0.10;0.10;;;7.80;99.90;;;7.81;100.00;99228.28;4996071;28;20649;-75
2022/11/19 00:31:44;;;;;;;0.03;0.03;;;7.80;99.90;;;7.78;100.00;99232.63;4979856;28;20231;-74
2022/11/19 00:34:11;;;;;;;0.00;0.00;;;7.80;99.90;;;7.81;100.00;99230.91;4996652;28;20264;-75
2022/11/19 00:36:38;;;;;;;0.10;0.10;;;7.80;99.90;;;7.82;100.00;99224.78;5001353;28;20334;-74
2022/11/19 00:39:05;;;;;;;0.00;0.00;;;7.80;99.90;;;7.84;100.00;99217.75;4993088;28;20244;-74
2022/11/19 00:41:32;;;;;;;0.10;0.10;;;7.80;99.90;;;7.87;100.00;99215.13;4992922;28;20287;-75
2022/11/19 00:43:59;;;;;;;0.10;0.10;;;7.90;99.90;;;7.93;100.00;99209.84;4995297;28;20228;-75
2022/11/19 00:46:29;;;;;;;0.10;0.10;;;8.00;99.90;;;7.96;100.00;99204.59;4996323;28;20322;-74
2022/11/19 00:48:58;;;;;;;0.00;0.00;;;8.00;99.90;;;7.98;100.00;99199.31;4991422;28;20311;-74
2022/11/19 00:51:29;;;;;;;0.10;0.10;;;8.00;99.90;;;8.05;100.00;99197.56;4998242;28;20220;-75
2022/11/19 00:53:57;;;;;;;0.10;0.10;;;8.00;99.90;;;8.07;100.00;99183.53;4993341;28;20251;-75
2022/11/19 00:56:26;;;;;;;0.00;0.00;;;8.10;99.90;;;8.03;100.00;99176.50;4993621;28;20254;-74
2022/11/19 00:58:53;;;;;;;0.75;0.30;;;8.00;99.90;;;8.06;100.00;99176.50;4996582;28;20323;-74
2022/11/19 01:01:24;;;;;;;0.10;0.10;;;8.10;99.90;;;8.03;100.00;99176.50;4997937;28;20245;-75
2022/11/19 01:03:52;;;;;;;0.00;0.00;;;8.00;99.90;;;8.08;100.00;99180.00;4996667;28;20223;-74
2022/11/19 01:06:23;;;;;;;0.10;0.10;;;8.10;99.90;;;8.05;100.00;99177.38;4996432;28;20231;-75
2022/11/19 01:08:52;;;;;;;0.10;0.10;;;8.10;99.90;;;8.02;100.00;99175.63;4994823;28;20236;-74
2022/11/19 01:11:23;;;;;;;0.10;0.10;;;8.00;99.90;;;8.05;100.00;99174.75;4990802;28;20217;-74
2022/11/19 01:13:50;;;;;;;0.10;0.10;;;8.00;99.90;;;7.93;100.00;99170.38;4997778;28;20228;-74
2022/11/19 01:16:24;;;;;;;0.10;0.10;;;8.00;99.90;;;7.99;100.00;99177.38;4996878;28;20347;-75
2022/11/19 01:18:51;;;;;;;0.10;0.10;;;8.00;99.90;;;8.02;100.00;99180.03;5001194;28;20319;-75
2022/11/19 01:21:21;;;;;;;0.10;0.10;;;8.00;99.90;;;8.00;100.00;99171.25;4991675;28;20326;-75
2022/11/19 01:23:49;;;;;;;0.10;0.10;;;8.00;99.90;;;8.07;100.00;99180.00;4996204;28;20314;-74
2022/11/19 01:26:17;;;;;;;0.20;0.20;;;8.10;99.90;;;7.95;100.00;99167.75;4995620;28;20251;-75
2022/11/19 01:28:44;;;;;;;0.47;0.47;;;8.00;99.90;;;7.97;100.00;99176.50;4977640;28;20319;-76
2022/11/19 01:31:17;;;;;;;0.32;0.32;;;8.00;99.90;;;7.94;100.00;99176.50;5004715;28;20259;-75
2022/11/19 01:33:45;;;;;;;0.20;0.20;;;8.00;99.90;;;7.90;100.00;99169.50;5004569;28;20231;-76
2022/11/19 01:36:19;;;;;;;0.10;0.10;;;7.90;99.90;;;7.86;100.00;99165.13;5003026;28;20296;-74
2022/11/19 01:38:49;;;;;;;0.10;0.10;;;7.90;99.90;;;7.83;100.00;99176.53;4994777;28;20653;-75
2022/11/19 01:41:31;;;;;;;0.10;0.10;;;7.80;99.90;;;7.74;100.00;99176.47;5001364;28;20231;-75
2022/11/19 01:44:26;;;;;;;0.10;0.10;;;7.70;99.90;;;7.70;100.00;99178.25;4997056;28;20216;-75
2022/11/19 01:46:53;;;;;;;0.10;0.10;;;7.70;99.90;;;7.61;100.00;99180.00;5001570;28;20238;-76
2022/11/19 01:49:20;;;;;;;0.10;0.10;;;7.60;99.90;;;7.50;100.00;99192.25;4999571;28;20771;-76
2022/11/19 01:51:59;;;;;;;0.38;0.17;;;7.50;99.90;;;7.40;100.00;99194.00;4967273;28;20220;-75
2022/11/19 01:54:38;;;;;;;0.20;0.20;;;7.40;99.90;;;7.37;100.00;99204.50;4976852;28;20220;-76
2022/11/19 01:57:12;;;;;;;0.10;0.10;;;7.40;99.90;;;7.36;100.00;99223.78;4980613;28;20335;-78
2022/11/19 01:59:42;;;;;;;0.00;0.00;;;7.40;99.90;;;7.32;100.00;99237.81;4982280;28;20296;-77
2022/11/19 02:02:09;;;;;;;0.10;0.10;;;7.30;99.90;;;7.34;100.00;99254.47;4987256;28;20318;-77
2022/11/19 02:04:38;;;;;;;0.00;0.00;;;7.30;99.90;;;7.38;100.00;99266.75;4978944;28;20256;-77
2022/11/19 02:07:06;;;;;;;0.10;0.10;;;7.40;99.90;;;7.43;100.00;99266.75;4975857;28;20236;-77
2022/11/19 02:09:33;;;;;;;0.03;0.03;;;7.40;99.90;;;7.41;100.00;99264.13;4975350;28;20235;-77
2022/11/19 02:12:44;;;;;;;0.10;0.10;;;7.40;99.90;;;7.78;100.00;99262.44;4972083;28;20320;-77
2022/11/19 02:15:17;;;;;;;0.10;0.10;;;7.70;99.90;;;7.95;100.00;99250.22;4987827;28;21286;-77
2022/11/19 02:18:29;;;;;;;0.20;0.20;;;7.90;99.90;;;7.86;100.00;99229.16;4997991;28;20323;-77
2022/11/19 02:21:04;;;;;;;0.10;0.10;;;7.90;99.90;;;7.81;100.00;99219.50;4979260;28;20311;-77
2022/11/19 02:23:51;;;;;;;0.00;0.00;;;7.80;99.90;;;7.82;100.00;99214.25;5019928;28;20223;-77
2022/11/19 02:26:32;;;;;;;0.00;0.00;;;7.80;99.90;;;7.88;100.00;99208.97;4985865;28;20316;-77
2022/11/19 02:29:15;;;;;;;0.10;0.10;;;7.90;99.90;;;7.71;100.00;99200.16;4986965;28;20315;-77
2022/11/19 02:32:03;;;;;;;0.10;0.10;;;7.80;99.90;;;7.61;100.00;99211.56;4991050;28;20681;-77
2022/11/19 02:34:57;;;;;;;0.00;0.00;;;7.70;99.90;;;7.56;100.00;99210.69;4997529;28;20274;-77
2022/11/19 02:37:53;;;;;;;0.10;0.10;;;7.60;99.90;;;7.55;100.00;99222.94;4971621;28;20311;-77
2022/11/19 02:40:59;;;;;;;0.15;0.15;;;7.60;99.90;;;7.61;100.00;99233.47;4929025;28;20288;-77
2022/11/19 02:43:37;;;;;;;0.25;0.20;;;7.60;99.90;;;7.67;100.00;99230.88;4947836;28;20224;-77
2022/11/19 02:46:12;;;;;;;1.30;1.08;;;7.70;99.90;;;7.68;100.00;99226.47;4980031;28;20322;-77
2022/11/19 02:48:45;;;;;;;0.60;0.60;;;7.70;99.90;;;7.65;100.00;99221.22;4977450;28;20231;-77
2022/11/19 02:51:15;;;;;;;0.98;0.88;;;7.70;99.90;;;7.59;100.00;99229.97;4979464;28;20263;-77
2022/11/19 02:53:42;;;;;;;0.98;0.80;;;7.70;99.90;;;7.53;100.00;99235.22;4974475;28;20250;-77
2022/11/19 02:56:50;;;;;;;0.88;0.80;;;7.60;99.90;;;7.50;100.00;99240.47;4980435;28;20322;-77
2022/11/19 03:05:14;;;;;;;1.52;1.23;;;7.40;99.90;;;7.42;100.00;99281.66;4979298;28;20274;-77
2022/11/19 03:07:41;;;;;;;1.70;1.30;;;7.40;99.90;;;7.47;100.00;99281.69;4979469;28;20228;-77
2022/11/19 03:10:10;;;;;;;1.70;1.20;;;8.20;99.90;;;7.57;100.00;99279.06;4974769;28;20232;-77
2022/11/19 03:16:40;;;;;;;1.27;0.93;;;7.60;99.90;;;7.56;100.00;99264.16;4989543;28;20248;-77
2022/11/19 03:18:55;;;;;;;2.72;1.77;;;7.70;99.90;;;7.66;100.00;99246.66;4996987;28;20427;-77
2022/11/19 03:21:44;;;;;;;1.40;0.95;;;7.70;99.90;;;7.61;100.00;99236.13;4979737;28;20263;-77
2022/11/19 03:24:42;;;;;;;2.72;1.60;;;7.70;99.90;;;7.69;100.00;99239.63;5007566;28;20595;-77
2022/11/19 03:27:20;;;;;;;1.48;1.08;;;7.70;99.90;;;7.63;100.00;99223.84;4993135;28;20228;-77
2022/11/19 03:29:53;;;;;;;2.65;1.52;;;7.70;99.90;;;7.65;100.00;99231.75;5002536;28;20261;-77
2022/11/19 03:33:03;;;;;;;2.42;1.42;;;7.70;99.90;;;7.63;100.00;99223.84;4988844;28;20573;-77
2022/11/19 03:35:40;;;;;;;3.58;2.03;;;7.70;99.90;;;7.62;100.00;99224.72;4983348;28;20254;-77
2022/11/19 03:38:13;;;;;;;2.30;1.40;;;7.50;99.90;;;7.64;100.00;99224.72;5003757;28;20254;-77
2022/11/19 03:40:43;;;;;;;3.80;2.03;;;7.70;99.90;;;7.64;100.00;99228.22;4994613;28;20231;-77
2022/11/19 03:43:17;;;;;;;3.42;1.83;;;7.60;99.90;;;7.62;100.00;99227.34;4994605;28;20243;-77
2022/11/19 03:45:46;;;;;;;3.47;1.92;;;7.70;99.90;;;7.72;100.00;99238.75;5002743;28;20253;-77
2022/11/19 03:48:17;;;;;;;3.25;1.83;;;7.70;99.90;;;7.94;100.00;99239.69;5003475;28;20237;-77
2022/11/19 03:50:56;;;;;;;2.75;1.65;;;8.00;99.90;;;7.79;100.00;99231.75;5002720;28;20231;-77
2022/11/19 03:53:24;;;;;;;4.18;2.20;;;7.90;99.90;;;7.65;100.00;99229.97;5011507;28;20310;-77
2022/11/19 03:56:10;;;;;;;1.98;1.33;;;7.70;99.90;;;7.66;100.00;99244.00;4998769;28;20227;-78
2022/11/19 03:58:41;;;;;;;3.10;1.80;;;7.70;99.90;;;7.75;100.00;99248.41;5004901;28;20871;-77
2022/11/19 04:01:08;;;;;;;3.67;1.92;;;7.80;99.90;;;7.68;100.00;99252.78;5001019;28;20290;-77
2022/11/19 04:03:36;;;;;;;3.53;2.00;;;7.70;99.90;;;7.64;100.00;99251.03;5016236;28;20254;-77
2022/11/19 04:06:04;;;;;;;4.50;2.40;;;7.70;99.90;;;7.68;100.00;99264.19;5013425;28;20318;-77
2022/11/19 04:08:31;;;;;;;6.63;3.17;;;7.70;99.90;;;7.71;100.00;99258.06;5011926;28;20348;-77
2022/11/19 04:10:58;;;;;;;3.30;2.03;;;7.70;99.90;;;7.65;100.00;99258.03;5016248;28;20227;-77
2022/11/19 04:13:24;;;;;;;4.18;2.45;;;7.70;99.90;;;7.61;100.00;99265.06;5002631;28;20313;-77
2022/11/19 04:15:51;;;;;;;3.63;2.30;;;7.70;99.90;;;7.59;100.00;99273.81;5015904;28;20314;-77
2022/11/19 04:18:18;;;;;;;4.18;2.03;;;7.60;99.90;;;7.58;100.00;99283.47;4999649;28;20233;-78
2022/11/19 04:20:45;;;;;;;1.92;1.23;;;7.60;99.90;;;7.63;100.00;99288.75;5019926;28;20250;-77
2022/11/19 04:23:12;;;;;;;1.85;1.10;;;7.60;99.90;;;7.63;100.00;99300.13;5023339;28;20644;-77
2022/11/19 04:25:46;;;;;;;1.48;1.10;;;7.70;99.90;;;7.64;100.00;99304.53;5024467;28;20235;-76
2022/11/19 04:28:13;;;;;;;2.10;1.35;;;7.70;99.90;;;7.62;100.00;99300.13;5010319;28;20219;-77
2022/11/19 04:30:40;;;;;;;2.00;1.20;;;7.70;99.90;;;7.61;100.00;99307.16;5003508;28;20234;-76
2022/11/19 04:33:07;;;;;;;1.92;1.40;;;7.60;99.90;;;7.61;100.00;99306.28;5008113;28;20285;-77
2022/11/19 04:35:34;;;;;;;2.40;1.65;;;7.60;99.90;;;7.62;100.00;99313.28;5018454;28;20238;-76
2022/11/19 04:38:01;;;;;;;1.30;1.00;;;7.60;99.90;;;7.62;100.00;99315.91;5016182;28;20258;-76
2022/11/19 04:40:27;;;;;;;2.55;1.40;;;7.70;99.90;;;7.59;100.00;99308.03;5002983;28;20326;-77
2022/11/19 04:42:54;;;;;;;1.42;1.10;;;7.60;99.90;;;7.63;100.00;99315.94;5034860;28;20250;-77
2022/11/19 04:45:21;;;;;;;1.27;0.95;;;7.70;99.90;;;7.63;100.00;99317.69;5029907;28;20250;-78
2022/11/19 04:47:48;;;;;;;1.95;1.15;;;7.70;99.90;;;7.64;100.00;99316.81;5019490;28;20786;-76
2022/11/19 04:50:15;;;;;;;1.88;1.10;;;7.70;99.90;;;7.64;100.00;99311.53;5025710;28;20751;-76
2022/11/19 04:52:42;;;;;;;2.20;1.30;;;7.70;99.90;;;7.75;100.00;99317.72;5001589;28;20305;-77
2022/11/19 04:55:09;;;;;;;2.10;1.23;;;7.80;99.90;;;7.84;100.00;99306.34;5024889;28;20231;-77
2022/11/19 04:57:36;;;;;;;2.22;1.25;;;7.90;99.90;;;7.79;100.00;99289.66;5020003;28;20223;-77
2022/11/19 05:00:05;;;;;;;1.48;1.08;;;7.80;99.90;;;7.77;100.00;99286.13;5015015;28;20235;-77
2022/11/19 05:02:32;;;;;;;0.43;0.43;;;7.80;99.90;;;7.75;100.00;99296.66;4994519;28;20247;-77
2022/11/19 05:04:59;;;;;;;0.30;0.30;;;7.80;99.90;;;7.75;100.00;99290.50;5024058;28;20314;-77
2022/11/19 05:07:26;;;;;;;1.67;1.23;;;7.80;99.90;;;7.81;100.00;99287.94;5008098;28;20709;-77
2022/11/19 05:09:53;;;;;;;1.15;0.90;;;7.80;99.90;;;7.88;100.00;99285.31;4993998;28;20240;-77
2022/11/19 05:12:20;;;;;;;1.38;0.98;;;7.90;99.90;;;7.86;100.00;99278.28;5016201;28;20577;-77
2022/11/19 05:14:47;;;;;;;0.20;0.20;;;7.90;99.90;;;7.87;100.00;99275.66;5012727;28;20223;-77
2022/11/19 05:17:14;;;;;;;0.17;0.17;;;7.90;99.90;;;7.85;100.00;99272.16;5010964;28;20735;-77
2022/11/19 05:19:41;;;;;;;0.28;0.28;;;7.90;99.90;;;7.90;100.00;99277.41;5012414;28;20239;-77
2022/11/19 05:22:08;;;;;;;1.25;0.90;;;7.90;99.90;;;7.93;100.00;99275.66;5005973;28;20250;-77
2022/11/19 05:24:35;;;;;;;2.60;1.33;;;8.00;99.90;;;7.87;100.00;99269.50;5014256;28;20611;-77
2022/11/19 05:27:02;;;;;;;2.47;1.33;;;7.90;99.90;;;7.90;100.00;99282.69;5013498;28;20316;-76
2022/11/19 05:29:29;;;;;;;3.33;1.60;;;7.90;99.90;;;7.93;100.00;99278.28;5017822;28;20354;-77
2022/11/19 05:31:56;;;;;;;0.20;0.20;;;8.00;99.90;;;7.88;100.00;99282.69;5011434;28;20259;-77
2022/11/19 05:34:23;;;;;;;0.22;0.22;;;7.90;99.90;;;7.92;100.00;99287.06;5014996;28;20254;-77
2022/11/19 05:36:50;;;;;;;0.70;0.70;;;8.00;99.90;;;7.95;100.00;99289.72;5022239;28;20243;-77
2022/11/19 05:39:17;;;;;;;0.57;0.57;;;8.00;99.90;;;7.99;100.00;99295.84;5020575;28;20261;-77
2022/11/19 05:41:48;;;;;;;1.88;1.10;;;8.00;99.90;;;7.96;100.00;99296.72;5028327;28;20230;-77
2022/11/19 05:44:16;;;;;;;3.08;1.63;;;8.00;99.90;;;7.90;100.00;99293.22;5011804;28;20307;-77
2022/11/19 05:46:43;;;;;;;2.78;1.50;;;8.00;99.90;;;7.94;100.00;99308.13;5023010;28;20241;-77
2022/11/19 05:49:10;;;;;;;4.18;2.10;;;8.00;99.90;;;7.92;100.00;99307.25;5001802;28;20247;-77
2022/11/19 05:51:37;;;;;;;1.42;1.10;;;8.00;99.90;;;7.94;100.00;99319.53;5019310;28;20251;-76
2022/11/19 05:54:04;;;;;;;1.08;0.90;;;8.00;99.90;;;7.95;100.00;99323.06;5009749;28;20228;-76
2022/11/19 05:56:32;;;;;;;0.65;0.65;;;8.00;99.90;;;7.93;100.00;99320.41;5009663;28;20235;-77
2022/11/19 05:58:59;;;;;;;0.10;0.10;;;8.00;99.90;;;7.86;100.00;99326.53;5009439;28;20243;-77
2022/11/19 06:01:29;;;;;;;0.20;0.20;;;7.90;99.90;;;7.71;100.00;99324.72;5009890;28;20776;-77
2022/11/19 06:03:56;;;;;;;0.28;0.28;;;7.80;99.90;;;7.64;100.00;99340.47;4998781;28;20322;-75
2022/11/19 06:06:24;;;;;;;0.63;0.63;;;7.70;99.90;;;7.67;100.00;99362.41;5014454;28;20246;-75
2022/11/19 06:08:51;;;;;;;0.68;0.68;;;7.70;99.90;;;7.57;100.00;99367.66;5013003;28;20298;-75
2022/11/19 06:14:03;;;;;;;0.63;0.60;;;7.60;99.90;;;7.65;100.00;99398.38;5020071;28;20266;-76
2022/11/19 06:16:30;;;;;;;0.30;0.30;;;7.60;99.90;;;7.51;100.00;99396.56;5009481;28;20318;-74
2022/11/19 06:18:57;;;;;;;0.10;0.10;;;7.60;99.90;;;7.55;100.00;99404.47;5016503;28;20320;-75
2022/11/19 06:21:25;;;;;;;0.20;0.20;;;7.60;99.90;;;7.50;100.00;99413.22;5022885;28;20309;-76
2022/11/19 06:23:52;;;;;;;0.13;0.13;;;7.50;99.90;;;7.44;100.00;99413.19;4997445;28;20227;-74
2022/11/19 06:26:27;;;;;;;0.10;0.10;;;7.50;99.90;;;7.46;100.00;99428.09;5011468;28;20295;-73
2022/11/19 06:28:54;;;;;;;0.10;0.10;;;7.20;99.90;;;7.36;100.00;99421.91;5008277;28;20223;-74
2022/11/19 06:31:22;;;;;;;0.10;0.10;;;7.50;99.90;;;7.35;100.00;99430.66;5018728;28;20227;-74
2022/11/19 06:33:49;;;;;;;0.10;0.10;;;7.40;99.90;;;7.19;100.00;99431.44;5017775;28;20231;-74
2022/11/19 06:36:16;;;;;;;0.10;0.10;;;7.30;99.90;;;7.10;100.00;99446.28;5023154;28;20319;-75
2022/11/19 06:38:43;;;;;;;0.10;0.10;;;7.20;99.90;;;7.07;100.00;99447.13;5012979;28;20290;-74
2022/11/19 06:41:10;;;;;;;0.10;0.10;;;7.10;99.90;;;6.84;100.00;99433.81;5035613;28;20293;-74
2022/11/19 06:43:37;;;;;;;0.10;0.10;;;7.00;99.90;;;6.78;100.00;99433.78;5016796;28;20295;-75
2022/11/19 06:46:04;;;;;;;0.10;0.10;;;6.90;99.90;;;6.67;100.00;99430.19;5008590;28;20255;-75
2022/11/19 06:48:31;;;;;;;0.20;0.20;;;6.80;99.90;;;6.71;100.00;99438.09;5010810;28;20663;-75
2022/11/19 06:51:00;;;;;;;0.17;0.17;;;6.80;99.90;;;6.63;100.00;99434.53;5008360;28;20281;-74
2022/11/19 06:53:28;;;;;;;0.20;0.20;;;6.80;99.90;;;6.71;100.00;99448.59;5028079;28;20314;-75
2022/11/19 06:56:00;;;;;;;0.50;0.50;;;6.70;99.90;;;6.66;100.00;99436.31;5039484;28;20238;-75
2022/11/19 06:58:28;;;;;;;0.10;0.10;;;6.80;99.90;;;6.56;100.00;99432.72;5031687;28;20216;-74
2022/11/19 07:00:56;;;;;;;0.10;0.10;;;6.70;99.90;;;6.63;100.00;99438.91;5012789;28;20223;-75
2022/11/19 07:03:25;;;;;;;0.20;0.20;;;6.70;99.90;;;6.60;100.00;99439.75;5023144;28;20310;-75
2022/11/19 07:05:59;;;;;;;0.10;0.10;;;6.60;99.90;;;6.69;100.00;99447.72;5037139;28;20237;-74
2022/11/19 07:08:26;;;;;;;0.15;0.15;;;6.70;99.90;;;6.61;100.00;99449.41;4997599;28;20232;-74
2022/11/19 07:10:55;;;;;;;0.10;0.10;;;6.70;99.90;;;6.67;100.00;99449.44;5000446;28;20290;-75
2022/11/19 07:13:22;;;;;;;0.10;0.10;;;6.70;99.90;;;6.71;100.00;99452.97;5032896;28;20264;-75
2022/11/19 07:15:49;;;;;;;0.10;0.10;;;6.80;99.90;;;6.73;100.00;99460.00;5022743;28;20304;-76
2022/11/19 07:18:16;;;;;;;0.10;0.10;;;6.80;99.90;;;6.69;100.00;99459.97;5014057;28;20608;-75
2022/11/19 07:20:45;;;;;;;0.20;0.20;;;6.70;99.90;;;6.46;100.00;99449.22;5017116;28;20266;-76
2022/11/19 07:23:12;;;;;;;0.30;0.30;;;6.60;99.90;;;6.38;100.00;99450.88;5023625;28;20259;-76
2022/11/19 07:25:39;;;;;;;0.30;0.30;;;6.50;99.90;;;6.14;100.00;99440.13;5015751;28;20629;-76
2022/11/19 07:28:08;;;;;;;0.32;0.32;;;6.30;99.90;;;6.07;100.00;99445.31;5006137;28;20239;-76
2022/11/19 07:30:35;;;;;;;0.20;0.20;;;6.20;99.90;;;6.03;100.00;99442.66;5019971;28;20243;-76
2022/11/19 07:33:02;;;;;;;0.20;0.20;;;6.10;99.90;;;6.04;100.00;99444.41;5025753;28;20310;-76
2022/11/19 07:35:32;;;;;;;0.30;0.30;;;6.20;99.90;;;6.04;100.00;99447.91;5019416;28;20232;-75
2022/11/19 07:37:59;;;;;;;0.25;0.25;;;6.20;99.90;;;6.06;100.00;99461.03;5020193;28;20239;-75
2022/11/19 07:40:26;;;;;;;0.17;0.17;;;6.10;99.90;;;5.99;100.00;99462.72;5014972;28;20274;-74
2022/11/19 07:42:53;;;;;;;0.10;0.10;;;6.10;99.90;;;5.86;100.00;99457.28;5012767;28;20691;-73
2022/11/19 07:45:21;;;;;;;0.50;0.50;;;6.00;99.90;;;5.99;100.00;99473.22;5020082;28;20231;-75
2022/11/19 07:47:48;;;;;;;0.45;0.45;;;6.00;99.90;;;5.87;100.00;99469.53;5012432;28;20259;-75
2022/11/19 07:50:19;;;;;;;1.00;1.00;;;6.00;99.90;;;5.74;100.00;99469.38;5525291;23;20286;-78
2022/11/19 07:52:46;;;;;;;0.47;0.47;;;5.90;99.90;;;5.61;100.00;99466.56;4980836;28;20266;-77
2022/11/19 07:55:14;;;;;;;0.38;0.38;;;5.70;99.90;;;5.60;100.00;99478.81;4986287;28;20228;-79
2022/11/19 07:57:42;;;;;;;0.52;0.52;;;5.60;99.90;;;5.64;100.00;99483.22;4985539;28;20232;-78
2022/11/19 08:00:09;;;;;;;0.75;0.75;;;5.80;99.90;;;5.51;100.00;99478.69;4978201;28;20244;-80
2022/11/19 08:02:36;;;;;;;0.50;0.50;;;5.70;99.90;;;5.45;100.00;99479.47;4964919;28;20316;-78
2022/11/19 08:05:04;;;;;;;0.80;0.80;;;5.50;99.90;;;5.27;100.00;99463.50;4949172;28;20316;-80
2022/11/19 08:07:31;;;;;;;0.50;0.50;;;5.40;99.90;;;5.32;100.00;99474.91;4968719;28;20352;-79
2022/11/19 08:09:58;;;;;;;0.40;0.40;;;5.40;99.90;;;5.45;100.00;99483.84;4962646;28;20311;-79
2022/11/19 08:12:35;;;;;;;0.40;0.40;;;5.50;99.90;;;5.55;100.00;99487.47;4961691;28;20997;-79
2022/11/19 08:15:03;;;;;;;0.35;0.35;;;5.60;99.90;;;5.49;100.00;99479.53;4967263;28;20279;-79
2022/11/19 08:20:16;;;;;;;0.70;0.70;;;5.50;99.90;;;5.38;100.00;99485.50;4963116;28;20233;-79
2022/11/19 08:22:43;;;;;;;0.63;0.63;;;5.50;99.90;;;5.30;100.00;99475.75;4944668;28;20315;-80
2022/11/19 08:25:10;;;;;;;0.63;0.50;;;5.50;99.90;;;5.29;100.00;99476.63;4966577;28;20256;-79
2022/11/19 08:27:37;;;;;;;0.60;0.60;;;5.40;99.90;;;5.35;100.00;99485.44;4963145;28;20237;-81
2022/11/19 08:30:05;;;;;;;0.70;0.70;;;5.40;99.90;;;5.41;100.00;99487.28;4958592;28;20237;-80
2022/11/19 08:32:36;;;;;;;0.52;0.52;;;5.40;99.90;;;5.38;100.00;99482.00;4963005;28;20231;-80
2022/11/19 08:35:04;;;;;;;0.50;0.50;;;5.40;99.90;;;5.39;100.00;99489.00;4964852;28;20310;-80
2022/11/19 08:37:31;;;;;;;0.98;0.80;;;5.50;99.90;;;5.43;100.00;99502.16;4966292;28;20247;-80
2022/11/19 08:39:58;;;;;;;1.00;0.93;;;5.50;99.90;;;5.30;100.00;99487.13;4966034;28;20244;-82
2022/11/19 08:45:11;;;;;;;0.70;0.70;;;5.40;99.90;;;5.28;100.00;99503.69;4956027;28;20229;-81
2022/11/19 08:47:45;;;;;;;0.70;0.70;;;5.30;99.90;;;5.21;100.00;99497.47;4968278;28;20252;-80
2022/11/19 08:50:13;;;;;;;1.17;1.08;;;5.30;99.90;;;5.21;100.00;99510.56;4961600;28;20237;-81
2022/11/19 08:52:40;;;;;;;0.90;0.90;;;5.40;99.90;;;5.14;100.00;99508.69;4951513;28;20323;-80
2022/11/19 08:55:08;;;;;;;0.95;0.95;;;5.30;99.90;;;5.14;100.00;99514.81;4956856;28;20236;-80
2022/11/19 08:57:35;;;;;;;1.00;0.90;;;5.30;99.90;;;5.01;100.00;99509.34;4964525;28;20258;-81
2022/11/19 09:00:03;;;;;;;0.80;0.80;;;5.20;99.90;;;5.07;100.00;99512.94;4949573;28;20276;-80
2022/11/19 09:02:32;;;;;;;0.93;0.90;;;5.20;99.90;;;5.03;100.00;99511.13;4965181;28;20258;-79
2022/11/19 09:04:59;;;;;;;1.02;0.93;;;5.20;99.90;;;5.02;100.00;99521.59;4944151;28;20288;-79
2022/11/19 09:07:27;;;;;;;0.90;0.90;;;5.10;99.90;;;5.13;100.00;99527.88;4966505;28;20237;-78
2022/11/19 09:09:55;;;;;;;1.02;1.00;;;5.10;99.90;;;5.19;100.00;99540.22;4964745;28;20304;-79
2022/11/19 09:12:22;;;;;;;1.17;1.08;;;5.20;99.90;;;5.11;100.00;99533.09;4962889;28;20233;-78
2022/11/19 09:14:49;;;;;;;1.13;1.02;;;5.20;99.90;;;4.81;100.00;99519.50;4961170;28;20383;-79
2022/11/19 09:17:16;;;;;;;1.15;1.05;;;5.10;99.90;;;4.95;100.00;99538.94;4960595;28;20229;-78
2022/11/19 09:19:47;;;;;;;1.65;1.55;;;5.00;99.90;;;4.91;100.00;99536.25;4957251;28;20272;-77
2022/11/19 09:22:15;;;;;;;1.20;1.10;;;5.00;99.90;;;4.87;100.00;99526.56;4960992;28;20240;-79
2022/11/19 09:24:44;;;;;;;1.40;1.30;;;5.00;99.90;;;4.90;100.00;99545.84;4958654;28;20252;-79
2022/11/19 09:27:12;;;;;;;4.82;2.50;;;4.90;99.90;;;4.95;100.00;99551.16;4950508;28;20267;-80
2022/11/19 09:29:39;;;;;;;3.33;1.98;;;5.00;99.90;;;4.99;100.00;99559.09;4962735;28;20233;-79
2022/11/19 09:32:06;;;;;;;2.85;1.52;;;5.10;99.90;;;4.80;100.00;99544.78;4961834;28;20239;-77
2022/11/19 09:34:39;;;;;;;1.80;1.30;;;4.90;99.90;;;4.91;100.00;99563.31;4937253;28;20291;-79
2022/11/19 09:37:07;;;;;;;2.58;1.52;;;5.00;99.90;;;4.67;100.00;99548.06;4951756;28;20225;-78
2022/11/19 09:39:35;;;;;;;1.33;1.17;;;4.90;99.90;;;4.82;100.00;99563.16;4961760;28;20238;-78
2022/11/19 09:42:53;;;;;;;0.80;0.70;;;4.90;99.90;;;4.80;100.00;99565.75;4957666;28;20226;-78
2022/11/19 09:45:54;;;;;;;0.38;0.38;;;5.00;99.90;;;4.62;100.00;99560.19;4965754;28;20283;-79
2022/11/19 09:48:38;;;;;;;0.30;0.30;;;4.80;99.90;;;4.75;100.00;99572.66;4943754;28;20235;-77
2022/11/19 09:51:25;;;;;;;0.10;0.10;;;4.80;99.90;;;4.72;100.00;99566.47;4961955;28;20242;-79
2022/11/19 09:54:16;;;;;;;0.40;0.30;;;4.90;99.90;;;4.45;100.00;99551.13;4951394;28;20284;-80
2022/11/19 09:56:50;;;;;;;0.45;0.45;;;4.70;99.90;;;4.57;100.00;99568.81;4945172;28;20250;-78
2022/11/19 09:59:38;;;;;;;1.00;1.00;;;4.70;99.90;;;4.64;100.00;99568.94;4958558;28;20225;-78
2022/11/19 10:02:22;;;;;;;1.65;0.98;;;4.80;99.90;;;4.64;100.00;99576.81;4952459;28;20240;-79
2022/11/19 10:04:53;;;;;;;0.50;0.50;;;4.70;99.90;;;4.37;100.00;99548.34;4951892;28;20240;-79
2022/11/19 10:07:31;;;;;;;0.63;0.43;;;4.60;99.90;;;4.46;100.00;99565.97;4948013;28;20740;-79
2022/11/19 10:10:37;;;;;;;0.20;0.20;;;4.60;99.90;;;4.37;100.00;99558.81;4961979;28;20236;-79
2022/11/19 10:13:56;;;;;;;0.10;0.10;;;4.50;99.90;;;4.00;100.00;99533.66;4947118;28;20223;-79
2022/11/19 10:16:58;;;;;;;0.20;0.20;;;4.30;99.90;;;4.13;100.00;99548.75;4960844;28;20233;-78
2022/11/19 10:19:53;;;;;;;0.10;0.10;;;4.30;99.90;;;4.15;100.00;99556.63;4969615;28;20263;-78
2022/11/19 10:23:04;;;;;;;0.10;0.10;;;4.30;99.90;;;4.20;100.00;99568.06;4943881;28;20312;-78
2022/11/19 10:25:40;;;;;;;0.10;0.10;;;4.40;99.90;;;4.03;100.00;99554.66;4962970;28;20328;-79
2022/11/19 10:28:20;;;;;;;0.20;0.20;;;4.20;99.90;;;4.02;100.00;99559.84;4938629;28;20249;-79
2022/11/19 10:30:57;;;;;;;0.15;0.15;;;4.30;99.90;;;3.99;100.00;99558.03;4950597;28;20236;-79
2022/11/19 10:34:26;;;;;;;3.72;1.77;;;4.20;99.90;;;3.97;100.00;99558.88;4951483;28;20256;-79
2022/11/19 10:37:02;;;;;;;1.00;0.90;;;4.10;99.90;;;3.94;100.00;99562.28;4929339;28;20232;-78
2022/11/19 10:40:03;;;;;;;3.15;1.85;;;4.10;99.90;;;3.77;100.00;99548.81;4954114;28;20228;-79
2022/11/19 10:42:44;;;;;;;6.18;3.33;;;4.00;99.90;;;4.00;100.00;99572.00;4936417;28;20240;-78
2022/11/19 10:45:24;;;;;;;4.32;2.55;;;4.20;99.90;;;3.89;100.00;99557.78;4929970;28;20225;-79
2022/11/19 10:48:04;;;;;;;3.22;2.13;;;4.10;99.90;;;3.73;100.00;99549.59;4949792;28;20363;-78
2022/11/19 10:50:36;;;;;;;4.28;2.50;;;4.00;99.90;;;3.72;100.00;99560.03;4939904;28;20231;-78
2022/11/19 10:53:35;;;;;;;4.05;2.55;;;3.90;99.90;;;3.86;100.00;99576.91;4938387;28;20654;-79
2022/11/19 10:56:16;;;;;;;3.05;1.75;;;4.00;99.90;;;3.75;100.00;99573.19;4936114;28;20229;-79
2022/11/19 10:58:57;;;;;;;1.92;1.45;;;4.00;99.90;;;3.80;100.00;99587.22;4938747;28;20252;-79
2022/11/19 11:01:36;;;;;;;1.98;1.52;;;3.90;99.90;;;3.68;100.00;99580.00;4962660;28;20322;-78
2022/11/19 11:04:29;;;;;;;2.72;1.70;;;3.90;99.90;;;3.64;100.00;99577.28;4948007;28;20233;-79
2022/11/19 11:07:03;;;;;;;1.45;1.15;;;3.80;99.90;;;3.75;100.00;99588.88;4942623;28;20300;-79
2022/11/19 11:09:41;;;;;;;3.00;2.20;;;3.90;99.90;;;3.67;100.00;99574.72;4966310;28;20235;-78